Startpagina
METAR-TAF:

METAR-TAF

Vliegvelden :

Vliegbasis Chièvres

Chièvres, België

breedte: 50-34N, lengte: 003-50E, hoogte: 60 m

Actueel weer

Dit bericht is 1 uur en het 8 minuten geleden gemaakt, om 15:25 UTC
Wind 14 kt uit het westen
Temperatuur 6°C
Vochtigheid 70%
Druk 1006 hPa
Zicht 10 km of meer

METAR: EBCV 261525Z AUTO 28014KT 9999 FEW026/// BKN063/// 06/01 Q1006 BLU

Tijdstip: 17:33 (16:33 UTC)

Verwachting

Dit bericht is 4 uur en het 52 minuten geleden gemaakt, om 11:41 UTC
Verwachting geldig van 26 om 13 UTC tot 26 om 22 UTC
Wind 14 kt uit het westen
Zicht 10 km of meer
Gebroken wolken op 3500 ft
Tijdelijke
van 26 om 13 UTC tot 26 om 17 UTC
Wind 15 kt uit het westen met uitschieters tot 25 kt
Zicht: 6000 m
Gebroken wolken op 3000 ft
lichte regenbuien
Wijzigt naar
van 26 om 20 UTC tot 26 om 22 UTC
Wind 8 kt uit het westzuidwesten

TAF: EBCV 261141Z 2613/2622 28014KT 9999 BKN035 TEMPO 2613/2617 28015G25KT 6000 -SHRA BKN030 BECMG 2620/2622 25008KT BY EBWM

Waarnemingen en weersverwachtingen van meer dan 4000 vliegvelden (METAR en TAF).

De beschikbare stations zijn de gele en rode punten op de kaart.

Ga met uw muis naar het station om de naam te zien.

Klik dan om waarnemingen en weersverwachtingen te zien.

kaart wijzigen: klik op de groene knoppen met een zwart kruis om in te zoomen, op de groene knop met een streepje om uit te zoomen of op de groene pijlen voor aangrenzende kaarten.


METAR-TAF: